Time,TemperatureF,DewpointF,PressureIn,WindDirection,WindDirectionDegrees,WindSpeedMPH,WindSpeedGustMPH,Humidity,HourlyPrecipIn,Conditions,Clouds,dailyrainin,SolarRadiationWatts/m^2,SoftwareType,DateUTC
2013-09-03 00:25:00,68.0,68.0,-100.00,South,183,0.0,2.0,100,0.00,,,0.00,1.000000,,2013-09-03 04:25:00,
2013-09-03 00:34:00,68.0,68.0,-100.00,South,183,0.0,2.0,100,0.00,,,0.00,1.000000,,2013-09-03 04:34:00,
2013-09-03 00:44:00,68.0,68.0,-100.00,South,183,0.0,2.0,100,0.00,,,0.00,1.000000,,2013-09-03 04:44:00,
2013-09-03 00:53:00,68.0,68.0,-100.00,South,183,0.0,2.0,100,0.00,,,0.00,1.000000,,2013-09-03 04:53:00,
2013-09-03 01:23:00,67.0,67.0,-100.00,West,265,0.0,3.0,100,0.00,,,0.00,1.000000,,2013-09-03 05:23:00,
2013-09-03 01:34:00,67.0,67.0,-100.00,West,265,0.0,3.0,100,0.00,,,0.00,1.000000,,2013-09-03 05:34:00,
2013-09-03 01:43:00,67.0,67.0,-100.00,West,265,0.0,3.0,100,0.00,,,0.00,1.000000,,2013-09-03 05:43:00,
2013-09-03 01:52:00,67.0,67.0,-100.00,West,265,0.0,3.0,100,0.00,,,0.00,1.000000,,2013-09-03 05:52:00,
2013-09-03 02:22:00,66.0,66.0,-100.00,WSW,253,0.0,0.0,100,0.00,,,0.00,1.000000,,2013-09-03 06:22:00,
2013-09-03 02:32:00,66.0,66.0,-100.00,WSW,253,0.0,0.0,100,0.00,,,0.00,1.000000,,2013-09-03 06:32:00,
2013-09-03 02:43:00,66.0,66.0,-100.00,WSW,253,0.0,0.0,100,0.00,,,0.00,1.000000,,2013-09-03 06:43:00,
2013-09-03 02:52:00,66.0,66.0,-100.00,WSW,253,0.0,0.0,100,0.00,,,0.00,1.000000,,2013-09-03 06:52:00,
2013-09-03 03:22:00,65.0,65.0,-100.00,West,263,0.0,0.0,100,0.00,,,0.00,1.000000,,2013-09-03 07:22:00,
2013-09-03 03:32:00,65.0,65.0,-100.00,West,263,0.0,0.0,100,0.00,,,0.00,1.000000,,2013-09-03 07:32:00,
2013-09-03 03:42:00,65.0,65.0,-100.00,West,263,0.0,0.0,100,0.00,,,0.00,1.000000,,2013-09-03 07:42:00,
2013-09-03 03:52:00,65.0,65.0,-100.00,West,263,0.0,0.0,100,0.00,,,0.00,1.000000,,2013-09-03 07:52:00,
2013-09-03 04:22:00,64.0,64.0,-100.00,West,263,0.0,2.0,100,0.00,,,0.00,1.000000,,2013-09-03 08:22:00,
2013-09-03 04:32:00,64.0,64.0,-100.00,West,263,0.0,2.0,100,0.00,,,0.00,1.000000,,2013-09-03 08:32:00,
2013-09-03 04:42:00,64.0,64.0,-100.00,West,263,0.0,2.0,100,0.00,,,0.00,1.000000,,2013-09-03 08:42:00,
2013-09-03 04:52:00,64.0,64.0,-100.00,West,263,0.0,2.0,100,0.00,,,0.00,1.000000,,2013-09-03 08:52:00,
2013-09-03 05:22:00,65.0,65.0,-100.00,West,269,1.0,4.0,100,0.00,,,0.00,1.000000,,2013-09-03 09:22:00,
2013-09-03 05:34:00,65.0,65.0,-100.00,West,269,1.0,4.0,100,0.00,,,0.00,1.000000,,2013-09-03 09:34:00,
2013-09-03 05:43:00,65.0,65.0,-100.00,West,269,1.0,4.0,100,0.00,,,0.00,1.000000,,2013-09-03 09:43:00,
2013-09-03 05:53:00,65.0,65.0,-100.00,West,269,1.0,4.0,100,0.00,,,0.00,1.000000,,2013-09-03 09:53:00,
2013-09-03 06:23:00,66.0,66.0,-100.00,West,260,2.0,5.0,100,0.00,,,0.00,1.000000,,2013-09-03 10:23:00,
2013-09-03 06:33:00,66.0,66.0,-100.00,West,260,2.0,5.0,100,0.00,,,0.00,1.000000,,2013-09-03 10:33:00,
2013-09-03 06:42:00,66.0,66.0,-100.00,West,260,2.0,5.0,100,0.00,,,0.00,1.000000,,2013-09-03 10:42:00,
2013-09-03 06:53:00,66.0,66.0,-100.00,West,260,2.0,5.0,100,0.00,,,0.00,1.000000,,2013-09-03 10:53:00,
2013-09-03 07:23:00,66.0,66.0,-100.00,West,259,3.0,8.0,100,0.00,,,0.00,2.000000,,2013-09-03 11:23:00,
2013-09-03 07:33:00,66.0,66.0,-100.00,West,259,3.0,8.0,100,0.00,,,0.00,2.000000,,2013-09-03 11:33:00,
2013-09-03 07:43:00,66.0,66.0,-100.00,West,259,3.0,8.0,100,0.00,,,0.00,2.000000,,2013-09-03 11:43:00,
2013-09-03 07:52:00,66.0,66.0,-100.00,West,259,3.0,8.0,100,0.00,,,0.00,2.000000,,2013-09-03 11:52:00,
2013-09-03 08:22:00,66.0,65.0,-100.00,WSW,237,4.0,9.0,98,0.00,,,0.00,35.000000,,2013-09-03 12:22:00,
2013-09-03 08:32:00,66.0,65.0,-100.00,WSW,237,4.0,9.0,98,0.00,,,0.00,35.000000,,2013-09-03 12:32:00,
2013-09-03 08:42:00,66.0,65.0,-100.00,WSW,237,4.0,9.0,98,0.00,,,0.00,35.000000,,2013-09-03 12:42:00,
2013-09-03 08:52:00,66.0,65.0,-100.00,WSW,237,4.0,9.0,98,0.00,,,0.00,35.000000,,2013-09-03 12:52:00,
2013-09-03 09:22:00,68.0,65.0,-100.00,SW,218,2.0,7.0,90,0.00,,,0.00,172.000000,,2013-09-03 13:22:00,
2013-09-03 09:32:00,68.0,65.0,-100.00,SW,218,2.0,7.0,90,0.00,,,0.00,172.000000,,2013-09-03 13:32:00,
2013-09-03 09:42:00,68.0,65.0,-100.00,SW,218,2.0,7.0,90,0.00,,,0.00,172.000000,,2013-09-03 13:42:00,
2013-09-03 09:52:00,68.0,65.0,-100.00,SW,218,2.0,7.0,90,0.00,,,0.00,172.000000,,2013-09-03 13:52:00,
2013-09-03 10:21:00,71.0,62.0,-100.00,SW,233,4.0,10.0,72,0.00,,,0.00,385.000000,,2013-09-03 14:21:00,
2013-09-03 10:32:00,71.0,62.0,-100.00,SW,233,4.0,10.0,72,0.00,,,0.00,385.000000,,2013-09-03 14:32:00,
2013-09-03 10:42:00,71.0,62.0,-100.00,SW,233,4.0,10.0,72,0.00,,,0.00,385.000000,,2013-09-03 14:42:00,
2013-09-03 10:52:00,71.0,62.0,-100.00,SW,233,4.0,10.0,72,0.00,,,0.00,385.000000,,2013-09-03 14:52:00,
2013-09-03 11:22:00,71.0,59.0,-100.00,WSW,247,5.0,11.0,67,0.00,,,0.00,426.000000,,2013-09-03 15:22:00,
2013-09-03 11:34:00,71.0,59.0,-100.00,WSW,247,5.0,11.0,67,0.00,,,0.00,426.000000,,2013-09-03 15:34:00,
2013-09-03 11:43:00,71.0,59.0,-100.00,WSW,247,5.0,11.0,67,0.00,,,0.00,426.000000,,2013-09-03 15:43:00,
2013-09-03 11:54:00,71.0,59.0,-100.00,WSW,247,5.0,11.0,67,0.00,,,0.00,426.000000,,2013-09-03 15:54:00,
2013-09-03 12:24:00,73.0,57.0,-100.00,West,271,5.0,12.0,58,0.00,,,0.00,573.000000,,2013-09-03 16:24:00,
2013-09-03 12:34:00,73.0,57.0,-100.00,West,271,5.0,12.0,58,0.00,,,0.00,573.000000,,2013-09-03 16:34:00,
2013-09-03 12:43:00,73.0,57.0,-100.00,West,271,5.0,12.0,58,0.00,,,0.00,573.000000,,2013-09-03 16:43:00,
2013-09-03 12:54:00,73.0,57.0,-100.00,West,271,5.0,12.0,58,0.00,,,0.00,573.000000,,2013-09-03 16:54:00,
2013-09-03 13:23:00,74.0,58.0,-100.00,WSW,249,7.0,15.0,57,0.00,,,0.00,584.000000,,2013-09-03 17:23:00,
2013-09-03 13:34:00,74.0,58.0,-100.00,WSW,249,7.0,15.0,57,0.00,,,0.00,584.000000,,2013-09-03 17:34:00,
2013-09-03 13:43:00,74.0,58.0,-100.00,WSW,249,7.0,15.0,57,0.00,,,0.00,584.000000,,2013-09-03 17:43:00,
2013-09-03 13:52:00,74.0,58.0,-100.00,WSW,249,7.0,15.0,57,0.00,,,0.00,584.000000,,2013-09-03 17:52:00,
2013-09-03 14:22:00,74.0,56.0,-100.00,WNW,287,4.0,12.0,54,0.00,,,0.00,647.000000,,2013-09-03 18:22:00,
2013-09-03 14:32:00,74.0,56.0,-100.00,WNW,287,4.0,12.0,54,0.00,,,0.00,647.000000,,2013-09-03 18:32:00,
2013-09-03 14:43:00,74.0,56.0,-100.00,WNW,287,4.0,12.0,54,0.00,,,0.00,647.000000,,2013-09-03 18:43:00,
2013-09-03 14:52:00,74.0,56.0,-100.00,WNW,287,4.0,12.0,54,0.00,,,0.00,647.000000,,2013-09-03 18:52:00,
2013-09-03 15:22:00,74.0,56.0,-100.00,WSW,253,5.0,13.0,54,0.00,,,0.00,580.000000,,2013-09-03 19:22:00,
2013-09-03 15:32:00,74.0,56.0,-100.00,WSW,253,5.0,13.0,54,0.00,,,0.00,580.000000,,2013-09-03 19:32:00,
2013-09-03 15:42:00,74.0,56.0,-100.00,WSW,253,5.0,13.0,54,0.00,,,0.00,580.000000,,2013-09-03 19:42:00,
2013-09-03 15:52:00,74.0,56.0,-100.00,WSW,253,5.0,13.0,54,0.00,,,0.00,580.000000,,2013-09-03 19:52:00,
2013-09-03 16:22:00,74.0,56.0,-100.00,West,267,5.0,15.0,54,0.00,,,0.00,457.000000,,2013-09-03 20:22:00,
2013-09-03 16:32:00,74.0,56.0,-100.00,West,267,5.0,15.0,54,0.00,,,0.00,457.000000,,2013-09-03 20:32:00,
2013-09-03 16:42:00,74.0,56.0,-100.00,West,267,5.0,15.0,54,0.00,,,0.00,457.000000,,2013-09-03 20:42:00,
2013-09-03 16:52:00,74.0,56.0,-100.00,West,267,5.0,15.0,54,0.00,,,0.00,457.000000,,2013-09-03 20:52:00,
2013-09-03 17:22:00,73.0,57.0,-100.00,WSW,258,5.0,14.0,58,0.00,,,0.00,406.000000,,2013-09-03 21:22:00,
2013-09-03 17:34:00,73.0,57.0,-100.00,WSW,258,5.0,14.0,58,0.00,,,0.00,406.000000,,2013-09-03 21:34:00,
2013-09-03 17:44:00,73.0,57.0,-100.00,WSW,258,5.0,14.0,58,0.00,,,0.00,406.000000,,2013-09-03 21:44:00,
2013-09-03 17:54:00,73.0,57.0,-100.00,WSW,258,5.0,14.0,58,0.00,,,0.00,406.000000,,2013-09-03 21:54:00,
2013-09-03 18:24:00,71.0,56.0,-100.00,West,271,5.0,16.0,59,0.00,,,0.00,354.000000,,2013-09-03 22:24:00,
2013-09-03 18:34:00,71.0,56.0,-100.00,West,271,5.0,16.0,59,0.00,,,0.00,354.000000,,2013-09-03 22:34:00,
2013-09-03 18:43:00,71.0,56.0,-100.00,West,271,5.0,16.0,59,0.00,,,0.00,354.000000,,2013-09-03 22:43:00,
2013-09-03 18:52:00,71.0,56.0,-100.00,West,271,5.0,16.0,59,0.00,,,0.00,354.000000,,2013-09-03 22:52:00,
2013-09-03 19:23:00,69.0,57.0,-100.00,West,270,5.0,12.0,66,0.00,,,0.00,81.000000,,2013-09-03 23:23:00,
2013-09-03 19:34:00,69.0,57.0,-100.00,West,270,5.0,12.0,66,0.00,,,0.00,81.000000,,2013-09-03 23:34:00,
2013-09-03 19:42:00,69.0,57.0,-100.00,West,270,5.0,12.0,66,0.00,,,0.00,81.000000,,2013-09-03 23:42:00,
2013-09-03 19:53:00,69.0,57.0,-100.00,West,270,5.0,12.0,66,0.00,,,0.00,81.000000,,2013-09-03 23:53:00,
2013-09-03 20:22:00,67.0,58.0,-100.00,West,262,3.0,10.0,73,0.00,,,0.00,11.000000,,2013-09-04 00:22:00,
2013-09-03 20:32:00,67.0,58.0,-100.00,West,262,3.0,10.0,73,0.00,,,0.00,11.000000,,2013-09-04 00:32:00,
2013-09-03 20:42:00,67.0,58.0,-100.00,West,262,3.0,10.0,73,0.00,,,0.00,11.000000,,2013-09-04 00:42:00,
2013-09-03 20:52:00,67.0,58.0,-100.00,West,262,3.0,10.0,73,0.00,,,0.00,11.000000,,2013-09-04 00:52:00,
2013-09-03 21:22:00,66.0,58.0,-100.00,West,265,4.0,9.0,76,0.00,,,0.00,1.000000,,2013-09-04 01:22:00,
2013-09-03 21:32:00,66.0,58.0,-100.00,West,265,4.0,9.0,76,0.00,,,0.00,1.000000,,2013-09-04 01:32:00,
2013-09-03 21:42:00,66.0,58.0,-100.00,West,265,4.0,9.0,76,0.00,,,0.00,1.000000,,2013-09-04 01:42:00,
2013-09-03 21:52:00,66.0,58.0,-100.00,West,265,4.0,9.0,76,0.00,,,0.00,1.000000,,2013-09-04 01:52:00,
2013-09-03 22:22:00,65.0,58.0,-100.00,WSW,256,4.0,11.0,78,0.00,,,0.00,1.000000,,2013-09-04 02:22:00,
2013-09-03 22:32:00,65.0,58.0,-100.00,WSW,256,4.0,11.0,78,0.00,,,0.00,1.000000,,2013-09-04 02:32:00,
2013-09-03 22:43:00,65.0,58.0,-100.00,WSW,256,4.0,11.0,78,0.00,,,0.00,1.000000,,2013-09-04 02:43:00,
2013-09-03 22:52:00,65.0,58.0,-100.00,WSW,256,4.0,11.0,78,0.00,,,0.00,1.000000,,2013-09-04 02:52:00,
2013-09-03 23:22:00,64.0,58.0,-100.00,West,259,3.0,12.0,81,0.00,,,0.00,1.000000,,2013-09-04 03:22:00,
2013-09-03 23:35:00,64.0,58.0,-100.00,West,259,3.0,12.0,81,0.00,,,0.00,1.000000,,2013-09-04 03:35:00,
2013-09-03 23:44:00,64.0,58.0,-100.00,West,259,3.0,12.0,81,0.00,,,0.00,1.000000,,2013-09-04 03:44:00,
2013-09-03 23:54:00,64.0,58.0,-100.00,West,259,3.0,12.0,81,0.00,,,0.00,1.000000,,2013-09-04 03:54:00,